Time;durP1;ratioP1;P1;durP2;ratioP2;P2;SDS_P1;SDS_P2;PMS_P1;PMS_P2;Temp;Humidity;BMP_temperature;BMP_pressure;BME280_temperature;BME280_humidity;BME280_pressure;Samples;Min_cycle;Max_cycle;Signal;HPM_P1;HPM_P2
2022/06/21 00:00:27;;;;;;;;;;;;;;;9.95;69.31;101668.03;6186352;23;20340;-74
2022/06/21 00:02:59;;;;;;;;;;;;;;;9.88;69.86;101666.25;6185269;23;19908;-73
2022/06/21 00:05:30;;;;;;;;;;;;;;;9.85;70.16;101655.78;6185205;23;19911;-73
2022/06/21 00:07:56;;;;;;;;;;;;;;;9.81;70.00;101647.06;6186009;23;20016;-73
2022/06/21 00:10:22;;;;;;;;;;;;;;;9.79;69.98;101645.31;6186313;23;19919;-73
2022/06/21 00:12:47;;;;;;;;;;;;;;;9.74;69.95;101658.38;6186406;23;19939;-73
2022/06/21 00:15:13;;;;;;;;;;;;;;;9.74;69.85;101657.47;6159821;23;19928;-73
2022/06/21 00:17:40;;;;;;;;;;;;;;;9.75;70.95;101667.09;6185475;23;19916;-74
2022/06/21 00:20:06;;;;;;;;;;;;;;;9.75;71.22;101664.47;6186219;23;19986;-73
2022/06/21 00:22:31;;;;;;;;;;;;;;;9.70;70.82;101670.56;6161755;23;19916;-73
2022/06/21 00:24:57;;;;;;;;;;;;;;;9.69;70.96;101660.09;6159596;23;19916;-73
2022/06/21 00:27:24;;;;;;;;;;;;;;;9.67;71.16;101657.47;6183326;23;20199;-73
2022/06/21 00:29:50;;;;;;;;;;;;;;;9.61;69.27;101654.81;6158717;23;19919;-73
2022/06/21 00:32:19;;;;;;;;;;;;;;;9.56;70.62;101656.53;6160013;23;19912;-73
2022/06/21 00:34:45;;;;;;;;;;;;;;;9.50;70.84;101654.75;6185047;23;19922;-73
2022/06/21 00:37:19;;;;;;;;;;;;;;;9.46;70.90;101657.34;6161296;23;19911;-73
2022/06/21 00:39:45;;;;;;;;;;;;;;;9.41;71.09;101652.09;6183291;23;19987;-73
2022/06/21 00:42:26;;;;;;;;;;;;;;;9.37;71.14;101658.16;6186096;23;19993;-73
2022/06/21 00:45:02;;;;;;;;;;;;;;;9.33;71.10;101656.38;6184882;23;20219;-73
2022/06/21 00:47:37;;;;;;;;;;;;;;;9.28;70.91;101645.91;6186089;23;19916;-73
2022/06/21 00:50:22;;;;;;;;;;;;;;;9.23;71.54;101652.81;6188407;23;19912;-74
2022/06/21 00:52:53;;;;;;;;;;;;;;;9.21;71.22;101657.19;6187595;23;20187;-73
2022/06/21 00:55:25;;;;;;;;;;;;;;;9.18;71.71;101658.03;6188612;23;19908;-73
2022/06/21 00:57:52;;;;;;;;;;;;;;;9.17;71.68;101651.03;6187800;23;20341;-74
2022/06/21 01:00:20;;;;;;;;;;;;;;;9.15;71.61;101646.66;6188889;23;20274;-73
2022/06/21 01:02:46;;;;;;;;;;;;;;;9.10;71.91;101651.88;6188514;23;19908;-73
2022/06/21 01:05:11;;;;;;;;;;;;;;;9.06;72.17;101654.44;6163055;23;20279;-73
2022/06/21 01:07:36;;;;;;;;;;;;;;;9.04;73.30;101653.56;6189695;23;20219;-73
2022/06/21 01:10:06;;;;;;;;;;;;;;;9.04;73.92;101643.09;6163790;23;19991;-73
2022/06/21 01:12:42;;;;;;;;;;;;;;;9.04;74.66;101650.94;6190056;23;19922;-73
2022/06/21 01:15:09;;;;;;;;;;;;;;;9.01;73.75;101644.84;6188023;23;19915;-73
2022/06/21 01:17:36;;;;;;;;;;;;;;;8.96;74.00;101641.28;6216203;23;19981;-73
2022/06/21 01:20:03;;;;;;;;;;;;;;;8.89;73.20;101636.88;6188199;23;19962;-73
2022/06/21 01:22:52;;;;;;;;;;;;;;;8.86;73.13;101633.38;6189338;23;19946;-73
2022/06/21 01:25:23;;;;;;;;;;;;;;;8.77;73.08;101624.59;6170165;23;19908;-73
2022/06/21 01:27:51;;;;;;;;;;;;;;;8.73;72.89;101620.22;6188905;23;20325;-73
2022/06/21 01:30:17;;;;;;;;;;;;;;;8.70;73.55;101621.94;6188868;23;20223;-73
2022/06/21 01:32:43;;;;;;;;;;;;;;;8.64;74.06;101623.63;6162626;23;19958;-73
2022/06/21 01:35:14;;;;;;;;;;;;;;;8.63;74.32;101637.56;6162163;23;19912;-73
2022/06/21 01:37:40;;;;;;;;;;;;;;;8.59;73.98;101630.56;6189265;23;19915;-73
2022/06/21 01:40:08;;;;;;;;;;;;;;;8.56;74.52;101635.75;6188253;23;19912;-73
2022/06/21 01:42:54;;;;;;;;;;;;;;;8.53;74.30;101640.06;6190057;23;19946;-73
2022/06/21 01:45:21;;;;;;;;;;;;;;;8.49;74.33;101639.13;6185665;23;19911;-73
2022/06/21 01:47:50;;;;;;;;;;;;;;;8.45;73.76;101630.41;6188938;23;20330;-73
2022/06/21 01:50:16;;;;;;;;;;;;;;;8.43;73.61;101641.66;6188386;23;19908;-73
2022/06/21 01:52:43;;;;;;;;;;;;;;;8.38;73.16;101631.19;6188040;23;19939;-73
2022/06/21 01:55:11;;;;;;;;;;;;;;;8.34;73.81;101626.78;6187498;23;19912;-73
2022/06/21 01:57:38;;;;;;;;;;;;;;;8.32;73.51;101634.59;6190158;23;19912;-73
2022/06/21 02:00:03;;;;;;;;;;;;;;;8.29;72.98;101621.53;6161930;23;19935;-73
2022/06/21 02:02:37;;;;;;;;;;;;;;;8.28;74.16;101608.47;6187273;23;20326;-73
2022/06/21 02:05:22;;;;;;;;;;;;;;;8.27;73.72;101601.47;6186163;23;20403;-72
2022/06/21 02:07:49;;;;;;;;;;;;;;;8.30;74.47;101607.63;6186891;23;19951;-73
2022/06/21 02:10:31;;;;;;;;;;;;;;;8.34;74.34;101611.13;6187436;23;20391;-73
2022/06/21 02:13:02;;;;;;;;;;;;;;;8.40;74.57;101620.75;6184823;23;20326;-73
2022/06/21 02:15:33;;;;;;;;;;;;;;;8.43;75.54;101619.06;6186555;23;19990;-73
2022/06/21 02:17:59;;;;;;;;;;;;;;;8.47;75.84;101614.75;6187821;23;19919;-73
2022/06/21 02:20:39;;;;;;;;;;;;;;;8.45;75.15;101606.91;6187615;23;19933;-73
2022/06/21 02:23:05;;;;;;;;;;;;;;;8.43;75.42;101605.09;6187079;23;20302;-73
2022/06/21 02:25:31;;;;;;;;;;;;;;;8.40;75.00;101598.09;6187576;23;20343;-73
2022/06/21 02:28:00;;;;;;;;;;;;;;;8.41;75.45;101604.22;6186316;23;19966;-74
2022/06/21 02:30:26;;;;;;;;;;;;;;;8.41;75.22;101604.22;6186304;23;19912;-73
2022/06/21 02:32:56;;;;;;;;;;;;;;;8.42;75.03;101596.41;6187210;23;20264;-73
2022/06/21 02:35:24;;;;;;;;;;;;;;;8.42;75.29;101590.28;6186024;23;19969;-73
2022/06/21 02:37:52;;;;;;;;;;;;;;;8.40;75.03;101581.56;6187151;23;20211;-73
2022/06/21 02:40:37;;;;;;;;;;;;;;;8.37;75.39;101564.13;6213338;23;19930;-73
2022/06/21 02:43:07;;;;;;;;;;;;;;;8.35;75.51;101551.91;6185635;23;19908;-73
2022/06/21 02:45:51;;;;;;;;;;;;;;;8.31;75.25;101544.06;6186834;23;19995;-73
2022/06/21 02:48:19;;;;;;;;;;;;;;;8.31;76.10;101561.47;6186105;23;19916;-73
2022/06/21 02:50:48;;;;;;;;;;;;;;;8.32;76.01;101561.50;6187473;23;19914;-73
2022/06/21 02:53:26;;;;;;;;;;;;;;;8.33;75.69;101557.13;6186101;23;19978;-73
2022/06/21 02:56:01;;;;;;;;;;;;;;;8.35;76.14;101564.97;6186839;23;19908;-73
2022/06/21 02:58:29;;;;;;;;;;;;;;;8.33;76.08;101562.34;6186988;23;19908;-73
2022/06/21 03:00:55;;;;;;;;;;;;;;;8.32;76.63;101558.00;6186269;23;19912;-73
2022/06/21 03:03:22;;;;;;;;;;;;;;;8.29;76.37;101563.22;6160668;23;19916;-73
2022/06/21 03:05:50;;;;;;;;;;;;;;;8.25;76.34;101572.75;6185754;23;19939;-73
2022/06/21 03:08:16;;;;;;;;;;;;;;;8.25;76.97;101588.41;6185794;23;19987;-73
2022/06/21 03:10:44;;;;;;;;;;;;;;;8.26;77.72;101595.38;6186484;23;19950;-73
2022/06/21 03:13:29;;;;;;;;;;;;;;;8.25;78.32;101588.41;6185135;23;19939;-73
2022/06/21 03:16:01;;;;;;;;;;;;;;;8.23;77.96;101592.75;6184030;23;19916;-73
2022/06/21 03:18:32;;;;;;;;;;;;;;;8.23;77.31;101590.13;6187129;23;19916;-73
2022/06/21 03:20:59;;;;;;;;;;;;;;;8.22;77.68;101595.34;6186895;23;19951;-74
2022/06/21 03:23:25;;;;;;;;;;;;;;;8.21;77.66;101594.44;6161474;23;19919;-73
2022/06/21 03:25:58;;;;;;;;;;;;;;;8.21;78.58;101607.50;6183040;23;19918;-73
2022/06/21 03:28:31;;;;;;;;;;;;;;;8.20;78.44;101613.56;6185691;23;19912;-72
2022/06/21 03:31:20;;;;;;;;;;;;;;;8.18;77.97;101604.00;6186060;23;19996;-73
2022/06/21 03:33:47;;;;;;;;;;;;;;;8.15;77.85;101602.22;6171271;23;19962;-72
2022/06/21 03:36:14;;;;;;;;;;;;;;;8.09;77.00;101592.59;6185574;23;19914;-72
2022/06/21 03:38:42;;;;;;;;;;;;;;;8.07;76.99;101598.66;6186313;23;19912;-73
2022/06/21 03:43:57;;;;;;;;;;;;;;;8.11;75.78;101595.22;6210308;23;19914;-73
2022/06/21 03:46:26;;;;;;;;;;;;;;;8.12;76.51;101583.94;6186636;23;19986;-72
2022/06/21 03:49:05;;;;;;;;;;;;;;;8.14;76.57;101566.53;6184039;23;19908;-72
2022/06/21 03:51:38;;;;;;;;;;;;;;;8.22;77.13;101572.72;6187414;23;19912;-72
2022/06/21 03:54:07;;;;;;;;;;;;;;;8.38;77.85;101557.19;6184955;23;20311;-72
2022/06/21 03:56:36;;;;;;;;;;;;;;;8.52;77.53;101558.22;6182770;23;19912;-72
2022/06/21 03:59:09;;;;;;;;;;;;;;;8.65;77.75;101557.44;6186013;23;19908;-72
2022/06/21 04:01:51;;;;;;;;;;;;;;;8.82;77.45;101552.34;6186970;23;19918;-73
2022/06/21 04:04:21;;;;;;;;;;;;;;;8.95;77.74;101560.25;6185464;23;19918;-73
2022/06/21 04:06:54;;;;;;;;;;;;;;;9.05;77.71;101558.56;6185475;23;19916;-73
2022/06/21 04:09:19;;;;;;;;;;;;;;;9.18;78.65;101558.66;6184353;23;19911;-73
2022/06/21 04:12:05;;;;;;;;;;;;;;;9.39;78.55;101564.00;6184162;23;19912;-73
2022/06/21 04:14:30;;;;;;;;;;;;;;;9.64;78.05;101571.09;6190824;23;19916;-73
2022/06/21 04:17:11;;;;;;;;;;;;;;;9.86;77.59;101569.41;6185052;23;20011;-73
2022/06/21 04:19:42;;;;;;;;;;;;;;;10.04;76.65;101571.22;6185810;23;19915;-73
2022/06/21 04:22:15;;;;;;;;;;;;;;;10.20;76.43;101563.34;6186818;23;19907;-73
2022/06/21 04:24:48;;;;;;;;;;;;;;;10.46;76.34;101570.41;6186072;23;19907;-73
2022/06/21 04:27:18;;;;;;;;;;;;;;;10.66;76.38;101567.78;6185840;23;20369;-74
2022/06/21 04:29:49;;;;;;;;;;;;;;;10.77;75.63;101565.16;6185122;23;19990;-73
2022/06/21 04:32:21;;;;;;;;;;;;;;;11.03;74.45;101557.25;6187287;23;19908;-73
2022/06/21 04:34:50;;;;;;;;;;;;;;;11.35;73.69;101564.16;6186798;23;19912;-73
2022/06/21 04:37:20;;;;;;;;;;;;;;;11.63;73.51;101562.28;6186572;23;19936;-73
2022/06/21 04:40:18;;;;;;;;;;;;;;;11.93;72.52;101565.66;6185475;23;19919;-73
2022/06/21 04:42:43;;;;;;;;;;;;;;;12.28;70.08;101559.31;6106039;23;20380;-72
2022/06/21 04:45:25;;;;;;;;;;;;;;;12.53;67.24;101553.84;6186430;23;19914;-73
2022/06/21 04:47:59;;;;;;;;;;;;;;;12.83;66.91;101548.34;6187211;23;20360;-73
2022/06/21 04:50:40;;;;;;;;;;;;;;;13.20;70.33;101549.69;6186769;23;19962;-72
2022/06/21 04:53:08;;;;;;;;;;;;;;;13.58;70.50;101542.28;6184890;23;19912;-73
2022/06/21 04:55:40;;;;;;;;;;;;;;;13.94;70.21;101532.13;6187312;23;19915;-73
2022/06/21 04:58:09;;;;;;;;;;;;;;;14.37;69.93;101539.34;6186285;23;19915;-73
2022/06/21 05:00:35;;;;;;;;;;;;;;;14.73;68.22;101539.66;6186026;23;19912;-73
2022/06/21 05:03:05;;;;;;;;;;;;;;;15.03;67.58;101545.25;6161470;23;19922;-73
2022/06/21 05:05:34;;;;;;;;;;;;;;;15.38;66.57;101548.97;6186577;23;20376;-73
2022/06/21 05:08:12;;;;;;;;;;;;;;;15.71;66.18;101546.50;6185661;23;20354;-73
2022/06/21 05:10:42;;;;;;;;;;;;;;;15.96;63.28;101545.97;6187218;23;19908;-73
2022/06/21 05:13:15;;;;;;;;;;;;;;;16.20;63.54;101548.03;6186860;23;20337;-73
2022/06/21 05:15:41;;;;;;;;;;;;;;;16.50;63.59;101542.91;6185159;23;20030;-73
2022/06/21 05:18:11;;;;;;;;;;;;;;;16.75;60.10;101539.63;6160776;23;19915;-73
2022/06/21 05:20:37;;;;;;;;;;;;;;;17.02;61.88;101545.13;6185808;23;20326;-73
2022/06/21 05:23:05;;;;;;;;;;;;;;;17.31;60.85;101549.59;6185112;23;19911;-73
2022/06/21 05:25:38;;;;;;;;;;;;;;;17.49;60.70;101543.78;6186101;23;19908;-73
2022/06/21 05:28:16;;;;;;;;;;;;;;;17.66;59.60;101540.63;6186168;23;19912;-74
2022/06/21 05:31:11;;;;;;;;;;;;;;;17.80;58.46;101541.97;6186231;23;19962;-73
2022/06/21 05:33:41;;;;;;;;;;;;;;;18.16;59.27;101526.72;6161336;23;19962;-74
2022/06/21 05:36:09;;;;;;;;;;;;;;;18.47;57.67;101533.66;6185683;23;19908;-74
2022/06/21 05:38:35;;;;;;;;;;;;;;;18.76;58.02;101528.25;6186360;23;19915;-74
2022/06/21 05:41:01;;;;;;;;;;;;;;;19.25;57.11;101531.84;6187017;23;19908;-72
2022/06/21 05:43:32;;;;;;;;;;;;;;;19.63;54.58;101537.50;6185796;23;20344;-71
2022/06/21 05:45:59;;;;;;;;;;;;;;;19.87;54.26;101542.81;6188310;23;19908;-72
2022/06/21 05:48:27;;;;;;;;;;;;;;;20.14;54.25;101551.50;6186042;23;20273;-73
2022/06/21 05:50:52;;;;;;;;;;;;;;;20.30;53.38;101557.06;6213502;23;19983;-73
2022/06/21 05:53:39;;;;;;;;;;;;;;;20.31;51.74;101547.25;6156408;23;19939;-73
2022/06/21 05:56:06;;;;;;;;;;;;;;;20.21;52.27;101549.44;6185932;23;19908;-73
2022/06/21 05:58:35;;;;;;;;;;;;;;;20.24;51.32;101552.84;6186224;23;19912;-76
2022/06/21 06:01:08;;;;;;;;;;;;;;;20.42;52.11;101558.34;6186430;23;19915;-75
2022/06/21 06:03:40;;;;;;;;;;;;;;;20.52;51.41;101572.97;6185346;23;19932;-75
2022/06/21 06:06:09;;;;;;;;;;;;;;;20.79;50.14;101571.91;6187049;23;20215;-75
2022/06/21 06:08:37;;;;;;;;;;;;;;;20.67;51.36;101563.50;6185424;23;19954;-74
2022/06/21 06:11:04;;;;;;;;;;;;;;;20.93;50.23;101567.72;6187234;23;19908;-76
2022/06/21 06:13:33;;;;;;;;;;;;;;;21.31;50.54;101579.41;6186473;23;19934;-75
2022/06/21 06:16:09;;;;;;;;;;;;;;;22.10;50.60;101585.50;6186596;23;19923;-75
2022/06/21 06:18:34;;;;;;;;;;;;;;;22.46;46.42;101584.66;6185169;23;19916;-77
2022/06/21 06:21:06;;;;;;;;;;;;;;;22.25;48.38;101585.69;6186340;23;19974;-77
2022/06/21 06:23:40;;;;;;;;;;;;;;;22.70;48.45;101597.72;6186337;23;19907;-76
2022/06/21 06:26:07;;;;;;;;;;;;;;;22.97;45.00;101597.22;6186164;23;19912;-77
2022/06/21 06:28:51;;;;;;;;;;;;;;;23.28;45.97;101598.34;6186681;23;19995;-75
2022/06/21 06:31:19;;;;;;;;;;;;;;;23.63;43.03;101598.22;6186690;23;19912;-76
2022/06/21 06:33:52;;;;;;;;;;;;;;;23.26;44.55;101597.53;6212071;23;19912;-73
2022/06/21 06:36:20;;;;;;;;;;;;;;;22.96;45.77;101606.22;6183553;23;19908;-75
2022/06/21 06:38:45;;;;;;;;;;;;;;;22.79;46.13;101605.25;6183968;23;19912;-75
2022/06/21 06:41:26;;;;;;;;;;;;;;;22.59;45.52;101600.91;6187344;23;19987;-76
2022/06/21 06:44:18;;;;;;;;;;;;;;;22.37;46.37;101609.16;6187126;23;19908;-77
2022/06/21 06:46:43;;;;;;;;;;;;;;;21.72;46.21;101595.31;6178868;23;19930;-77
2022/06/21 06:49:18;;;;;;;;;;;;;;;21.20;47.54;101591.41;6186811;23;19998;-75
2022/06/21 06:51:45;;;;;;;;;;;;;;;21.33;48.94;101597.03;6187522;23;19908;-74
2022/06/21 06:54:20;;;;;;;;;;;;;;;22.42;45.97;101607.09;6186240;23;19958;-75
2022/06/21 06:57:08;;;;;;;;;;;;;;;23.06;44.59;101612.81;6187741;23;20250;-76
2022/06/21 06:59:35;;;;;;;;;;;;;;;23.21;46.54;101604.94;6170730;23;19919;-75
2022/06/21 07:02:18;;;;;;;;;;;;;;;23.14;46.61;101602.63;6161977;23;19908;-78
2022/06/21 07:04:45;;;;;;;;;;;;;;;23.37;46.09;101608.53;6187165;23;19987;-75
2022/06/21 07:07:31;;;;;;;;;;;;;;;22.76;41.18;101610.75;6186708;23;19912;-75
2022/06/21 07:10:00;;;;;;;;;;;;;;;21.88;46.00;101611.47;6163924;23;19913;-75
2022/06/21 07:12:30;;;;;;;;;;;;;;;21.26;45.80;101608.91;6187239;23;19911;-78
2022/06/21 07:14:56;;;;;;;;;;;;;;;20.46;46.08;101613.19;6182216;23;20003;-74
2022/06/21 07:17:28;;;;;;;;;;;;;;;20.16;47.45;101613.47;6186439;23;19996;-73
2022/06/21 07:19:55;;;;;;;;;;;;;;;20.42;48.23;101606.25;6186712;23;19958;-76
2022/06/21 07:22:22;;;;;;;;;;;;;;;20.60;47.75;101602.81;6187015;23;19912;-75
2022/06/21 07:25:02;;;;;;;;;;;;;;;20.75;47.82;101613.78;6184990;23;19908;-74
2022/06/21 07:27:29;;;;;;;;;;;;;;;20.58;46.52;101595.81;6185865;23;20001;-74
2022/06/21 07:30:03;;;;;;;;;;;;;;;20.21;48.08;101597.31;6184672;23;20376;-75
2022/06/21 07:32:32;;;;;;;;;;;;;;;20.13;47.92;101583.44;6185635;23;19908;-75
2022/06/21 07:35:01;;;;;;;;;;;;;;;20.42;47.02;101584.94;6187379;23;19908;-76
2022/06/21 07:37:27;;;;;;;;;;;;;;;20.44;48.10;101593.72;6187291;23;20281;-75
2022/06/21 07:39:59;;;;;;;;;;;;;;;20.35;46.83;101610.09;6184635;23;20322;-73
2022/06/21 07:42:29;;;;;;;;;;;;;;;19.91;46.38;101600.25;6187005;23;19908;-71
2022/06/21 07:44:58;;;;;;;;;;;;;;;19.49;47.51;101598.28;6186743;23;19919;-72
2022/06/21 07:47:35;;;;;;;;;;;;;;;19.44;48.54;101586.94;6186451;23;19981;-73
2022/06/21 07:50:14;;;;;;;;;;;;;;;19.51;49.38;101594.66;6186763;23;19908;-72
2022/06/21 07:52:44;;;;;;;;;;;;;;;19.70;48.63;101591.31;6185863;23;20045;-74
2022/06/21 07:55:28;;;;;;;;;;;;;;;20.13;47.71;101599.41;6186039;23;19967;-72
2022/06/21 07:57:58;;;;;;;;;;;;;;;20.05;45.62;101597.94;6186655;23;20382;-73
2022/06/21 08:06:40;;;;;;;;;;;;;;;19.56;47.72;101589.16;6185625;23;19908;-72
2022/06/21 08:08:46;;;;;;;;;;;;;;;20.52;45.88;101580.13;6212581;23;19970;-73
2022/06/21 08:11:14;;;;;;;;;;;;;;;21.69;44.69;101574.13;6185505;23;19908;-73
2022/06/21 08:13:40;;;;;;;;;;;;;;;23.05;43.75;101567.44;6212638;23;19912;-74
2022/06/21 08:16:13;;;;;;;;;;;;;;;24.34;42.07;101571.03;6186405;23;19966;-74
2022/06/21 08:18:42;;;;;;;;;;;;;;;25.63;40.35;101560.63;6185782;23;19915;-73
2022/06/21 08:21:09;;;;;;;;;;;;;;;27.17;39.07;101554.81;6186617;23;19911;-72
2022/06/21 08:23:43;;;;;;;;;;;;;;;27.61;38.24;101565.16;6184765;23;19934;-74
2022/06/21 08:26:14;;;;;;;;;;;;;;;26.39;36.08;101565.50;6186291;23;19912;-74
2022/06/21 08:28:39;;;;;;;;;;;;;;;25.22;39.81;101572.97;6185450;23;20027;-73
2022/06/21 08:31:10;;;;;;;;;;;;;;;24.36;41.00;101570.94;6186040;23;20215;-73
2022/06/21 08:33:39;;;;;;;;;;;;;;;24.24;41.89;101571.63;6184728;23;19908;-72
2022/06/21 08:36:16;;;;;;;;;;;;;;;24.92;41.20;101554.28;6186317;23;19999;-72
2022/06/21 08:38:48;;;;;;;;;;;;;;;25.29;40.15;101554.69;6184107;23;19931;-73
2022/06/21 08:44:19;;;;;;;;;;;;;;;23.77;41.40;101551.97;6212035;23;20220;-74
2022/06/21 08:47:11;;;;;;;;;;;;;;;23.29;41.76;101530.53;6185005;23;20208;-72
2022/06/21 08:49:55;;;;;;;;;;;;;;;23.23;41.84;101529.06;6184910;23;19916;-73
2022/06/21 08:52:33;;;;;;;;;;;;;;;22.59;40.59;101535.97;6186008;23;19908;-73
2022/06/21 08:55:01;;;;;;;;;;;;;;;21.87;42.59;101533.25;6183883;23;19912;-73
2022/06/21 08:57:39;;;;;;;;;;;;;;;21.53;43.34;101518.00;6185279;23;19947;-74
2022/06/21 09:00:13;;;;;;;;;;;;;;;21.20;44.47;101510.59;6185369;23;19908;-72
2022/06/21 09:02:41;;;;;;;;;;;;;;;21.06;44.82;101484.56;6185066;23;19908;-72
2022/06/21 09:05:13;;;;;;;;;;;;;;;21.19;45.16;101479.53;6184871;23;19930;-73
2022/06/21 09:07:48;;;;;;;;;;;;;;;21.13;44.59;101477.16;6184276;23;19916;-72
2022/06/21 09:10:34;;;;;;;;;;;;;;;20.80;45.49;101483.06;6187044;23;19915;-73
2022/06/21 09:13:18;;;;;;;;;;;;;;;20.48;45.46;101486.19;6186702;23;19912;-71
2022/06/21 09:15:46;;;;;;;;;;;;;;;20.25;45.71;101492.50;6187266;23;19938;-72
2022/06/21 09:18:23;;;;;;;;;;;;;;;20.04;45.78;101505.75;6188273;23;19915;-74
2022/06/21 09:20:48;;;;;;;;;;;;;;;19.94;45.79;101493.78;6188328;23;19919;-73
2022/06/21 09:23:36;;;;;;;;;;;;;;;19.79;45.94;101489.91;6185206;23;19954;-73
2022/06/21 09:26:07;;;;;;;;;;;;;;;20.26;45.45;101483.59;6187398;23;19939;-73
2022/06/21 09:28:37;;;;;;;;;;;;;;;21.68;43.36;101474.59;6186938;23;19966;-73
2022/06/21 09:31:05;;;;;;;;;;;;;;;22.85;42.87;101470.47;6188083;23;19990;-74
2022/06/21 09:33:46;;;;;;;;;;;;;;;23.73;42.40;101472.81;6187507;23;19912;-72
2022/06/21 09:36:27;;;;;;;;;;;;;;;25.31;39.05;101464.25;6188217;23;19908;-73
2022/06/21 09:39:11;;;;;;;;;;;;;;;25.30;38.37;101465.19;6183810;23;19908;-73
2022/06/21 09:41:47;;;;;;;;;;;;;;;24.53;39.78;101455.59;6187060;23;19912;-72
2022/06/21 09:44:15;;;;;;;;;;;;;;;25.07;39.36;101456.81;6187495;23;19916;-73
2022/06/21 09:47:01;;;;;;;;;;;;;;;25.25;40.00;101457.44;6187551;23;19918;-70
2022/06/21 09:49:34;;;;;;;;;;;;;;;24.89;40.32;101448.94;6185699;23;19912;-72
2022/06/21 09:52:02;;;;;;;;;;;;;;;24.49;39.33;101462.09;6187822;23;19931;-71
2022/06/21 09:54:27;;;;;;;;;;;;;;;23.84;39.69;101468.56;6186832;23;19912;-75
2022/06/21 09:57:05;;;;;;;;;;;;;;;23.02;41.11;101466.91;6187084;23;19908;-72
2022/06/21 09:59:49;;;;;;;;;;;;;;;22.64;41.47;101456.44;6185683;23;19908;-75
2022/06/21 10:02:18;;;;;;;;;;;;;;;22.57;42.62;101455.03;6186406;23;19938;-75
2022/06/21 10:05:03;;;;;;;;;;;;;;;22.58;43.30;101459.44;6184755;23;19908;-75
2022/06/21 10:07:35;;;;;;;;;;;;;;;22.24;42.48;101455.81;6185971;23;19915;-77
2022/06/21 10:10:01;;;;;;;;;;;;;;;22.00;42.64;101447.28;6210109;23;19912;-77
2022/06/21 10:12:48;;;;;;;;;;;;;;;22.01;43.17;101440.97;6185031;23;19958;-75
2022/06/21 10:15:16;;;;;;;;;;;;;;;22.00;43.04;101444.59;6187423;23;19916;-74
2022/06/21 10:17:51;;;;;;;;;;;;;;;21.77;43.23;101450.13;6187180;23;19912;-74
2022/06/21 10:20:20;;;;;;;;;;;;;;;21.51;43.40;101463.84;6186422;23;19908;-76
2022/06/21 10:23:04;;;;;;;;;;;;;;;21.30;44.20;101461.25;6185698;23;19908;-75
2022/06/21 10:25:56;;;;;;;;;;;;;;;21.36;44.30;101463.59;6184786;23;19915;-73
2022/06/21 10:28:37;;;;;;;;;;;;;;;21.38;44.63;101455.56;6137410;23;20303;-73
2022/06/21 10:31:15;;;;;;;;;;;;;;;21.58;44.24;101458.16;6211151;23;19915;-73
2022/06/21 10:33:59;;;;;;;;;;;;;;;21.77;44.13;101454.59;6187175;23;19908;-73
2022/06/21 10:36:42;;;;;;;;;;;;;;;22.13;44.13;101457.22;6186888;23;19912;-73
2022/06/21 10:39:09;;;;;;;;;;;;;;;22.24;43.22;101456.69;6186729;23;19915;-72
2022/06/21 10:44:34;;;;;;;;;;;;;;;21.85;44.02;101459.56;6208525;23;19962;-75
2022/06/21 10:47:04;;;;;;;;;;;;;;;21.83;43.71;101456.09;6184481;23;19920;-74
2022/06/21 10:49:48;;;;;;;;;;;;;;;21.62;43.27;101458.88;6186530;23;19908;-74
2022/06/21 10:52:16;;;;;;;;;;;;;;;21.37;43.64;101461.81;6183921;23;20003;-73
2022/06/21 10:54:48;;;;;;;;;;;;;;;21.30;44.09;101469.25;6185101;23;19987;-72
2022/06/21 10:57:26;;;;;;;;;;;;;;;21.37;43.88;101468.00;6184530;23;19912;-72
2022/06/21 11:02:50;;;;;;;;;;;;;;;21.24;43.67;101466.88;6211006;23;19954;-73
2022/06/21 11:05:35;;;;;;;;;;;;;;;21.12;44.02;101452.31;6185372;23;20019;-73
2022/06/21 11:08:17;;;;;;;;;;;;;;;21.19;44.21;101463.53;6165355;23;19986;-72
2022/06/21 11:10:56;;;;;;;;;;;;;;;21.24;44.42;101461.53;6187374;23;19911;-72
2022/06/21 11:13:29;;;;;;;;;;;;;;;21.44;44.15;101463.25;6186077;23;19915;-72
2022/06/21 11:16:09;;;;;;;;;;;;;;;21.50;43.19;101464.78;6184452;23;20276;-71
2022/06/21 11:18:34;;;;;;;;;;;;;;;21.38;43.30;101460.91;6186797;23;19907;-73
2022/06/21 11:21:12;;;;;;;;;;;;;;;21.52;43.85;101462.91;6187165;23;20313;-73
2022/06/21 11:23:56;;;;;;;;;;;;;;;21.74;43.81;101455.63;6185904;23;19912;-73
2022/06/21 11:26:28;;;;;;;;;;;;;;;21.95;42.96;101459.03;6185887;23;19907;-72
2022/06/21 11:29:13;;;;;;;;;;;;;;;21.77;42.91;101458.13;6185810;23;20289;-73
2022/06/21 11:31:47;;;;;;;;;;;;;;;21.63;43.10;101458.78;6186103;23;19911;-72
2022/06/21 11:34:31;;;;;;;;;;;;;;;21.75;43.29;101457.34;6213048;23;19915;-72
2022/06/21 11:36:59;;;;;;;;;;;;;;;21.98;43.11;101458.88;6186580;23;19908;-73
2022/06/21 11:39:34;;;;;;;;;;;;;;;22.14;43.35;101458.97;6184479;23;20235;-73
2022/06/21 11:42:06;;;;;;;;;;;;;;;22.02;42.07;101448.91;6185756;23;19918;-74
2022/06/21 11:44:50;;;;;;;;;;;;;;;21.80;42.07;101449.97;6186592;23;19935;-73
2022/06/21 11:47:23;;;;;;;;;;;;;;;21.69;42.88;101459.44;6186311;23;19919;-72
2022/06/21 11:49:57;;;;;;;;;;;;;;;21.79;42.98;101453.59;6186296;23;19915;-73
2022/06/21 11:52:22;;;;;;;;;;;;;;;21.92;43.04;101452.97;6187177;23;19911;-72
2022/06/21 11:54:53;;;;;;;;;;;;;;;21.97;42.92;101451.81;6184612;23;19954;-73
2022/06/21 11:57:41;;;;;;;;;;;;;;;22.05;41.89;101454.09;6187136;23;19907;-72
2022/06/21 12:00:16;;;;;;;;;;;;;;;21.93;41.78;101444.03;6197178;23;20303;-72
2022/06/21 12:03:02;;;;;;;;;;;;;;;21.70;41.79;101446.03;6185479;23;19907;-72
2022/06/21 12:05:46;;;;;;;;;;;;;;;21.66;41.58;101436.44;6186985;23;19991;-74
2022/06/21 12:08:17;;;;;;;;;;;;;;;21.80;41.78;101436.63;6185300;23;20016;-72
2022/06/21 12:11:03;;;;;;;;;;;;;;;21.93;42.20;101422.69;6186740;23;20260;-74
2022/06/21 12:13:55;;;;;;;;;;;;;;;22.00;42.47;101424.09;6186369;23;19914;-72
2022/06/21 12:16:39;;;;;;;;;;;;;;;21.98;42.54;101426.00;6141255;23;19991;-72
2022/06/21 12:19:12;;;;;;;;;;;;;;;21.99;42.52;101422.38;6185285;23;19941;-73
2022/06/21 12:21:41;;;;;;;;;;;;;;;22.11;42.11;101426.22;6186602;23;19932;-73
2022/06/21 12:24:12;;;;;;;;;;;;;;;22.18;42.35;101424.97;6185980;23;19970;-73
2022/06/21 12:26:37;;;;;;;;;;;;;;;22.10;41.52;101420.03;6186238;23;19912;-73
2022/06/21 12:29:06;;;;;;;;;;;;;;;22.02;41.87;101421.34;6161786;23;19916;-73
2022/06/21 12:31:36;;;;;;;;;;;;;;;22.20;42.11;101411.56;6185844;23;19908;-73
2022/06/21 12:34:04;;;;;;;;;;;;;;;22.41;41.71;101413.16;6185442;23;19912;-72
2022/06/21 12:36:49;;;;;;;;;;;;;;;22.51;40.39;101407.31;6186967;23;19908;-73
2022/06/21 12:39:22;;;;;;;;;;;;;;;22.34;39.32;101400.19;6185206;23;19911;-74
2022/06/21 12:41:52;;;;;;;;;;;;;;;22.08;41.42;101400.56;6186389;23;20002;-72
2022/06/21 12:44:38;;;;;;;;;;;;;;;21.99;41.36;101406.34;6185673;23;19922;-71
2022/06/21 12:47:19;;;;;;;;;;;;;;;21.88;41.86;101403.38;6126357;23;19919;-72
2022/06/21 12:49:48;;;;;;;;;;;;;;;21.88;41.65;101392.69;6185628;23;19912;-73
2022/06/21 12:52:13;;;;;;;;;;;;;;;21.94;41.44;101387.06;6186679;23;19908;-72
2022/06/21 12:54:45;;;;;;;;;;;;;;;21.98;41.89;101388.66;6185522;23;19915;-74
2022/06/21 12:57:33;;;;;;;;;;;;;;;22.13;40.91;101387.84;6185781;23;19908;-74
2022/06/21 13:00:02;;;;;;;;;;;;;;;22.19;41.37;101392.00;6185674;23;19919;-73
2022/06/21 13:02:47;;;;;;;;;;;;;;;22.12;40.98;101388.78;6186037;23;19912;-72
2022/06/21 13:05:36;;;;;;;;;;;;;;;22.11;41.29;101384.41;6186146;23;19911;-73
2022/06/21 13:08:01;;;;;;;;;;;;;;;22.30;41.01;101388.78;6186082;23;19923;-73
2022/06/21 13:10:52;;;;;;;;;;;;;;;22.25;41.13;101380.13;6186126;23;19912;-72
2022/06/21 13:13:38;;;;;;;;;;;;;;;22.20;40.88;101380.38;6140749;23;20295;-72
2022/06/21 13:16:22;;;;;;;;;;;;;;;22.38;41.68;101378.56;6184758;23;19919;-72
2022/06/21 13:19:23;;;;;;;;;;;;;;;22.42;41.04;101366.78;6185721;23;19931;-73
2022/06/21 13:21:51;;;;;;;;;;;;;;;22.45;42.25;101368.44;6067020;23;20213;-72
2022/06/21 13:24:32;;;;;;;;;;;;;;;22.61;42.06;101363.13;6162494;23;19919;-73
2022/06/21 13:27:07;;;;;;;;;;;;;;;22.71;41.31;101372.34;6186334;23;19958;-72